< VanCam Weather - Nearby METAR Reports

Nearby METAR Reports

 

KPDX - Portland Intl
Distance from station: SW 8.9mi, 14.3km
Updated: 12/17/2017 6:53pm
Mostly cloudy
Mostly cloudy
 Wind from SE
Wind: SE 6 mph , 9 km/h
Temperature: 46°F , 8°C
Wind Chill: 43°F , 6°C
Dew Point: 39°F , 4°C
Humidity: 76%
Barometer: 30.15 inHg , 1021 hPa
Clouds: Mostly cloudy
Visibility: 10 miles , 16 km
Cloud details: Few Clouds 2700 ft
Mostly cloudy 3600 ft
2017/12/18 02:53 KPDX 180253Z 13005KT 10SM FEW027 BKN036 08/04 A3015 RMK AO2 SLP208 T00830044 58002 $
KVUO - Vancouver
Distance from station: W 10.7mi, 17.2km
Updated: 12/17/2017 6:53pm
Overcast
Overcast
 Wind from ESE
Wind: ESE 6 mph , 9 km/h
Temperature: 46°F , 8°C
Wind Chill: 43°F , 6°C
Dew Point: 41°F , 5°C
Humidity: 82%
Barometer: 30.14 inHg , 1020.7 hPa
Clouds: Overcast
Visibility: 10 miles , 16 km
Cloud details: Overcast 3300 ft
2017/12/18 02:53 KVUO 180253Z AUTO 12005KT 10SM OVC033 08/05 A3014 RMK AO2 SLP206 T00830050 58002
 
KTTD - Troutdale
Distance from station: SSE 8.1mi, 13km
Updated: 12/17/2017 6:53pm
Overcast
Overcast
 Wind from calm
Wind: Calm
Temperature: 46°F , 8°C
Dew Point: 43°F , 6°C
Humidity: 87%
Barometer: 30.15 inHg , 1021 hPa
Clouds: Overcast
Visibility: 10 miles , 16 km
Cloud details: Overcast 3800 ft
2017/12/18 02:53 KTTD 180253Z 00000KT 10SM OVC038 08/06 A3015 RMK AO2 SLP210 T00830061 58002
KSPB - Scappoose
Distance from station: WSW 21.6mi, 34.8km
Updated: 12/17/2017 6:53pm
Overcast
Overcast
 Wind from calm
Wind: Calm
Temperature: 43°F , 6°C
Dew Point: 41°F , 5°C
Humidity: 93%
Barometer: 30.13 inHg , 1020.3 hPa
Clouds: Overcast
Visibility: 10 miles , 16 km
Cloud details: Mostly cloudy 1900 ft
Overcast 8000 ft
2017/12/18 02:53 KSPB 180253Z AUTO 00000KT 10SM BKN019 OVC080 06/05 A3013 RMK AO2 SLP203 T00610050 58007
 
KHIO - Hillsboro
Distance from station: SW 25.8mi, 41.5km
Updated: 12/17/2017 6:53pm
Mostly cloudy
Mostly cloudy
 Wind from calm
Wind: Calm
Temperature: 45°F , 7°C
Dew Point: 41°F , 5°C
Humidity: 87%
Barometer: 30.13 inHg , 1020.3 hPa
Clouds: Mostly cloudy
Visibility: 9 miles , 14 km
Cloud details: Mostly cloudy 3400 ft
2017/12/18 02:53 KHIO 180253Z 00000KT 9SM BKN034 07/05 A3013 RMK AO2 SLP205 T00670050 58003
KDLS - The Dalles
Distance from station: E 61.4mi, 98.8km
Updated: 12/17/2017 6:53pm
Clear
Clear
 Wind from E
Wind: E 5 mph , 7 km/h
Temperature: 39°F , 4°C
Wind Chill: 35°F , 2°C
Dew Point: 36°F , 2°C
Humidity: 87%
Barometer: 30.08 inHg , 1018.6 hPa
Clouds: Clear
Visibility: 10 miles , 16 km
2017/12/18 02:53 KDLS 180253Z AUTO 10004KT 10SM CLR 04/02 A3008 RMK AO2 SLP189 T00390022 58009
 
KAST - Astoria
Distance from station: WNW 77.2mi, 124.2km
Updated: 12/17/2017 6:55pm
Light rain, Overcast
Light rain, Overcast
 Wind from S
Wind: S 15 mph , 24 km/h, Gust: 22 mph , 35 km/h
Temperature: 50°F , 10°C
Wind Chill: 45°F , 7°C
Dew Point: 46°F , 8°C
Humidity: 88%
Barometer: 30.08 inHg , 1018.6 hPa
Summary: Light rain
Clouds: Overcast
Visibility: 10 miles , 16 km
Cloud details: Mostly cloudy 1700 ft
Overcast 2200 ft
2017/12/18 02:55 KAST 180255Z AUTO 19013G19KT 10SM -RA BKN017 OVC022 10/08 A3008 RMK AO2 SLP186 P0000 60000 T01000078 56005
KONP - Newport
Distance from station: SW 106mi, 170.4km
Updated: 12/17/2017 6:55pm
Overcast
Overcast
 Wind from S
Wind: S 5 mph , 7 km/h
Temperature: 46°F , 8°C
Wind Chill: 44°F , 7°C
Dew Point: 45°F , 7°C
Humidity: 93%
Clouds: Overcast
Visibility: 10 miles , 16 km
Cloud details: Mostly cloudy 1300 ft
Overcast 2300 ft
2017/12/18 02:55 KONP 180255Z AUTO 18004KT 10SM BKN013 OVC023 08/07 RMK AO2